Time;durP1;ratioP1;P1;durP2;ratioP2;P2;SDS_P1;SDS_P2;PMS_P1;PMS_P2;Temp;Humidity;BMP_temperature;BMP_pressure;BME280_temperature;BME280_humidity;BME280_pressure;Samples;Min_cycle;Max_cycle;Signal;HPM_P1;HPM_P2
2023/08/12 00:02:22;;;;;;;7.57;6.97;;;;;;;18.49;83.89;101429.50;5016271;28;20421;-82
2023/08/12 00:04:51;;;;;;;11.03;6.97;;;;;;;18.39;84.14;101429.25;5024645;28;20488;-83
2023/08/12 00:07:20;;;;;;;7.43;6.53;;;;;;;18.25;84.96;101423.19;5001791;28;20437;-83
2023/08/12 00:09:50;;;;;;;6.40;5.80;;;;;;;18.15;85.40;101425.72;5031823;28;20457;-83
2023/08/12 00:12:19;;;;;;;8.30;7.40;;;;;;;18.11;85.80;101432.72;5025130;28;20457;-81
2023/08/12 00:14:48;;;;;;;7.37;6.60;;;;;;;18.07;86.37;101437.03;5011500;28;20904;-81
2023/08/12 00:17:19;;;;;;;15.80;7.13;;;;;;;18.02;86.51;101435.00;5007102;28;20469;-81
2023/08/12 00:19:48;;;;;;;7.83;6.80;;;;;;;18.09;86.40;101429.41;5019747;28;20433;-81
2023/08/12 00:22:18;;;;;;;7.70;6.90;;;;;;;18.18;85.89;101427.97;5032729;28;20417;-83
2023/08/12 00:24:47;;;;;;;7.63;6.10;;;;;;;18.18;85.95;101430.72;5006662;28;20466;-82
2023/08/12 00:27:16;;;;;;;7.30;6.30;;;;;;;18.14;86.17;101427.63;5032224;28;20425;-81
2023/08/12 00:29:46;;;;;;;7.00;6.40;;;;;;;18.11;86.27;101424.50;5022809;28;20430;-81
2023/08/12 00:32:15;;;;;;;7.70;6.93;;;;;;;18.10;86.27;101428.34;5025473;28;20425;-82
2023/08/12 00:34:46;;;;;;;7.57;6.77;;;;;;;18.12;86.27;101421.53;5023801;28;20469;-80
2023/08/12 00:37:15;;;;;;;10.13;7.17;;;;;;;18.12;86.42;101417.97;5010670;28;20473;-82
2023/08/12 00:39:44;;;;;;;12.73;6.67;;;;;;;18.18;86.44;101425.22;5005320;28;20491;-80
2023/08/12 00:42:18;;;;;;;8.70;7.07;;;;;;;18.21;86.14;101411.88;5022079;28;20409;-81
2023/08/12 00:44:47;;;;;;;10.40;7.87;;;;;;;18.26;85.82;101413.91;5024003;28;20445;-81
2023/08/12 00:47:17;;;;;;;8.43;7.00;;;;;;;18.28;85.38;101410.94;5036864;28;20405;-80
2023/08/12 00:49:49;;;;;;;8.30;6.30;;;;;;;18.22;85.44;101409.97;5038239;28;20410;-81
2023/08/12 00:52:19;;;;;;;7.17;6.57;;;;;;;18.26;84.93;101400.19;5032864;28;20413;-80
2023/08/12 00:54:49;;;;;;;8.87;6.90;;;;;;;18.19;85.22;101396.78;5019964;28;20451;-80
2023/08/12 00:57:18;;;;;;;7.37;6.77;;;;;;;18.17;85.71;101393.44;5002365;28;20475;-81
2023/08/12 00:59:48;;;;;;;8.07;7.20;;;;;;;18.28;84.96;101391.75;5002682;28;20443;-80
2023/08/12 01:02:17;;;;;;;7.73;7.03;;;;;;;18.32;84.25;101384.72;5020116;28;20908;-81
2023/08/12 01:04:48;;;;;;;10.23;7.90;;;;;;;18.40;83.40;101382.41;5019665;28;20998;-80
2023/08/12 01:07:17;;;;;;;7.80;7.00;;;;;;;18.39;83.34;101383.53;5002036;28;20461;-81
2023/08/12 01:09:47;;;;;;;9.43;6.80;;;;;;;18.31;83.76;101372.06;5002939;28;20516;-80
2023/08/12 01:12:25;;;;;;;7.00;6.33;;;;;;;18.27;83.75;101373.63;5003148;28;20448;-80
2023/08/12 01:15:02;;;;;;;6.07;5.53;;;;;;;18.27;83.80;101366.25;5020453;28;20473;-81
2023/08/12 01:17:32;;;;;;;7.93;7.23;;;;;;;18.23;83.70;101360.44;5021819;28;20453;-80
2023/08/12 01:20:08;;;;;;;7.50;6.20;;;;;;;18.17;84.09;101358.66;5004931;28;20437;-81
2023/08/12 01:22:41;;;;;;;7.20;6.50;;;;;;;18.20;83.92;101362.84;5021377;28;20471;-80
2023/08/12 01:25:12;;;;;;;7.13;6.40;;;;;;;18.18;83.76;101368.53;5019042;28;20830;-79
2023/08/12 01:27:41;;;;;;;7.07;6.47;;;;;;;18.17;84.04;101366.88;5001791;28;20420;-81
2023/08/12 01:30:12;;;;;;;6.67;6.00;;;;;;;18.22;83.87;101377.94;5000772;28;20437;-80
2023/08/12 01:32:46;;;;;;;7.40;6.70;;;;;;;18.15;84.03;101370.94;5001424;28;20429;-79
2023/08/12 01:35:19;;;;;;;6.60;6.03;;;;;;;18.07;84.54;101360.34;5018812;28;20519;-80
2023/08/12 01:37:51;;;;;;;7.77;6.47;;;;;;;18.03;84.90;101359.16;5001575;28;20472;-82
2023/08/12 01:40:25;;;;;;;7.10;6.50;;;;;;;18.04;84.82;101352.59;5000831;28;20519;-80
2023/08/12 01:42:55;;;;;;;7.10;6.47;;;;;;;18.07;84.79;101350.22;5019974;28;20931;-81
2023/08/12 01:45:24;;;;;;;9.47;8.43;;;;;;;18.16;84.42;101356.16;5020638;28;20879;-80
2023/08/12 01:47:54;;;;;;;8.87;6.77;;;;;;;18.13;84.39;101353.91;5024198;28;20427;-79
2023/08/12 01:50:23;;;;;;;8.40;6.77;;;;;;;18.08;84.63;101345.56;5028713;28;20448;-80
2023/08/12 01:52:55;;;;;;;10.57;6.83;;;;;;;17.98;85.19;101350.81;5006575;28;20437;-80
2023/08/12 01:55:26;;;;;;;7.17;6.57;;;;;;;17.90;85.43;101348.47;5028814;28;20516;-80
2023/08/12 01:57:57;;;;;;;10.97;6.33;;;;;;;17.86;85.91;101344.53;5026936;28;20488;-81
2023/08/12 02:00:27;;;;;;;9.37;6.73;;;;;;;17.94;85.55;101339.53;5023864;28;20479;-80
2023/08/12 02:02:56;;;;;;;6.73;6.20;;;;;;;17.93;85.34;101342.50;5019513;28;20910;-80
2023/08/12 02:05:27;;;;;;;8.40;7.10;;;;;;;17.83;86.12;101336.78;5002581;28;20515;-81
2023/08/12 02:07:56;;;;;;;7.07;6.47;;;;;;;17.91;85.86;101329.03;5002251;28;20436;-81
2023/08/12 02:10:27;;;;;;;8.87;6.70;;;;;;;17.95;85.80;101330.25;5019130;28;20401;-83
2023/08/12 02:12:57;;;;;;;7.47;6.40;;;;;;;17.98;85.55;101320.69;5017106;28;20446;-81
2023/08/12 02:15:26;;;;;;;7.43;6.83;;;;;;;18.07;84.83;101322.00;5001504;28;20483;-82
2023/08/12 02:17:55;;;;;;;8.27;7.03;;;;;;;18.08;84.43;101323.66;5018603;28;20968;-82
2023/08/12 02:20:25;;;;;;;7.27;6.57;;;;;;;18.15;84.26;101327.13;5021783;28;20416;-80
2023/08/12 02:22:55;;;;;;;7.33;6.73;;;;;;;18.14;84.28;101322.72;5012955;28;20502;-79
2023/08/12 02:25:25;;;;;;;7.73;6.50;;;;;;;18.25;83.52;101324.56;5030772;28;21021;-80
2023/08/12 02:27:55;;;;;;;7.40;6.80;;;;;;;18.23;83.59;101310.28;4999691;28;20480;-79
2023/08/12 02:30:24;;;;;;;7.20;6.50;;;;;;;18.19;84.13;101314.59;5004898;28;20481;-80
2023/08/12 02:32:55;;;;;;;8.20;6.23;;;;;;;18.25;83.85;101313.59;5017375;28;20794;-81
2023/08/12 02:35:25;;;;;;;6.47;5.87;;;;;;;18.31;83.39;101307.16;5017503;28;21033;-81
2023/08/12 02:37:55;;;;;;;11.23;8.77;;;;;;;18.27;83.41;101295.03;5017619;28;20428;-80
2023/08/12 02:40:24;;;;;;;8.40;7.37;;;;;;;18.18;83.93;101297.31;5004764;28;21050;-81
2023/08/12 02:42:54;;;;;;;7.83;7.00;;;;;;;18.19;83.83;101293.53;5007356;28;20448;-80
2023/08/12 02:45:24;;;;;;;10.13;6.80;;;;;;;18.09;84.33;101300.69;5034915;28;20445;-80
2023/08/12 02:47:53;;;;;;;6.83;6.23;;;;;;;18.10;84.26;101299.63;5018610;28;20473;-80
2023/08/12 02:50:23;;;;;;;7.50;6.77;;;;;;;18.11;84.25;101302.09;5019590;28;20430;-80
2023/08/12 02:52:52;;;;;;;6.47;5.87;;;;;;;18.28;83.22;101293.13;5015481;28;20422;-80
2023/08/12 02:55:22;;;;;;;8.50;6.27;;;;;;;18.23;82.99;101291.13;5029366;28;20427;-80
2023/08/12 02:57:51;;;;;;;6.87;6.17;;;;;;;18.24;82.79;101287.31;5011274;28;20437;-80
2023/08/12 03:00:22;;;;;;;6.93;6.30;;;;;;;18.13;83.63;101278.03;5035880;28;20428;-81
2023/08/12 03:02:52;;;;;;;7.43;6.70;;;;;;;18.03;83.97;101287.94;5023742;28;20413;-81
2023/08/12 03:05:21;;;;;;;7.70;7.00;;;;;;;18.00;84.08;101283.81;5023389;28;20457;-79
2023/08/12 03:07:51;;;;;;;9.50;8.80;;;;;;;17.93;84.46;101287.72;5023505;28;20504;-79
2023/08/12 03:10:21;;;;;;;10.50;9.50;;;;;;;17.94;84.62;101286.66;5023611;28;20446;-80
2023/08/12 03:12:50;;;;;;;6.80;6.03;;;;;;;18.00;84.18;101286.53;5023581;28;20466;-81
2023/08/12 03:15:23;;;;;;;7.83;7.10;;;;;;;17.96;83.97;101288.06;5003952;28;20484;-81
2023/08/12 03:17:53;;;;;;;7.30;6.70;;;;;;;17.90;84.36;101282.75;5003877;28;20412;-79
2023/08/12 03:20:23;;;;;;;7.40;6.70;;;;;;;17.89;84.25;101281.09;5002070;28;20475;-80
2023/08/12 03:22:53;;;;;;;8.10;7.40;;;;;;;17.82;84.64;101275.72;5019380;28;20429;-79
2023/08/12 03:25:23;;;;;;;7.33;6.77;;;;;;;17.73;84.95;101267.06;5003501;28;20462;-80
2023/08/12 03:27:53;;;;;;;7.00;6.50;;;;;;;17.81;84.66;101274.09;5003648;28;20483;-80
2023/08/12 03:30:25;;;;;;;6.43;5.93;;;;;;;17.93;83.60;101274.03;5004156;28;20448;-80
2023/08/12 03:32:54;;;;;;;8.27;7.47;;;;;;;17.95;83.72;101263.69;5003332;28;20445;-80
2023/08/12 03:35:25;;;;;;;11.00;7.93;;;;;;;17.98;83.42;101268.69;5002960;28;20861;-80
2023/08/12 03:37:54;;;;;;;7.83;6.47;;;;;;;18.00;83.26;101255.59;5023636;28;20426;-79
2023/08/12 03:40:24;;;;;;;7.30;6.70;;;;;;;18.06;82.29;101254.59;5010576;28;20432;-78
2023/08/12 03:42:54;;;;;;;7.90;7.20;;;;;;;18.04;82.58;101254.84;5012894;28;20437;-79
2023/08/12 03:45:27;;;;;;;6.80;6.20;;;;;;;18.04;82.85;101257.59;5017955;28;20461;-81
2023/08/12 03:47:57;;;;;;;10.23;6.80;;;;;;;17.98;82.94;101252.25;5035803;28;20411;-81
2023/08/12 03:50:26;;;;;;;7.90;6.70;;;;;;;17.96;82.99;101254.41;5018643;28;20444;-79
2023/08/12 03:52:55;;;;;;;9.00;6.37;;;;;;;17.88;83.26;101258.34;5012169;28;20532;-79
2023/08/12 03:55:25;;;;;;;6.83;6.20;;;;;;;17.97;82.90;101256.06;4999958;28;20489;-80
2023/08/12 03:57:55;;;;;;;7.40;6.60;;;;;;;18.00;82.61;101250.94;4999319;28;21141;-81
2023/08/12 04:00:24;;;;;;;9.40;7.77;;;;;;;18.03;82.26;101244.97;5001285;28;20469;-81
2023/08/12 04:02:58;;;;;;;7.23;6.63;;;;;;;18.07;82.12;101246.16;5002629;28;20457;-81
2023/08/12 04:05:29;;;;;;;6.90;5.87;;;;;;;18.08;82.01;101236.03;5002037;28;20473;-79
2023/08/12 04:07:58;;;;;;;6.43;5.93;;;;;;;18.30;80.29;101233.44;5002472;28;20477;-79
2023/08/12 04:10:27;;;;;;;7.43;6.70;;;;;;;18.52;79.66;101237.97;5002305;28;20463;-80
2023/08/12 04:12:56;;;;;;;7.57;6.97;;;;;;;19.22;76.57;101240.28;5020276;28;20414;-78
2023/08/12 04:15:26;;;;;;;7.33;6.53;;;;;;;19.33;74.63;101233.88;5001592;28;20461;-79
2023/08/12 04:17:58;;;;;;;8.03;6.83;;;;;;;19.28;74.97;101231.03;5000153;28;20441;-80
2023/08/12 04:20:28;;;;;;;8.40;6.40;;;;;;;19.56;74.27;101240.28;5016726;28;20512;-80
2023/08/12 04:22:57;;;;;;;10.00;6.80;;;;;;;19.95;72.68;101233.63;5002684;28;20471;-80
2023/08/12 04:25:27;;;;;;;7.97;5.70;;;;;;;20.80;68.67;101228.28;5004020;28;20480;-82
2023/08/12 04:27:58;;;;;;;7.40;6.30;;;;;;;21.51;64.51;101234.31;5001877;28;20449;-82
2023/08/12 04:30:27;;;;;;;6.53;5.93;;;;;;;22.31;62.23;101233.03;5019460;28;20923;-81
2023/08/12 04:32:59;;;;;;;9.20;7.70;;;;;;;22.98;58.59;101231.22;5018403;28;20431;-82
2023/08/12 04:35:33;;;;;;;6.93;6.20;;;;;;;23.21;57.06;101231.47;5017064;28;20492;-82
2023/08/12 04:38:03;;;;;;;8.27;6.60;;;;;;;23.63;55.71;101225.59;5028551;28;20418;-81
2023/08/12 04:40:33;;;;;;;8.40;7.33;;;;;;;23.93;54.81;101232.13;5001099;28;21076;-81
2023/08/12 04:43:03;;;;;;;6.83;5.70;;;;;;;24.46;53.48;101236.03;5017630;28;20406;-81
2023/08/12 04:45:33;;;;;;;22.07;6.63;;;;;;;25.01;52.16;101232.06;5000530;28;20544;-80
2023/08/12 04:48:06;;;;;;;7.03;6.53;;;;;;;24.87;52.10;101236.59;5021261;28;20420;-82
2023/08/12 04:50:36;;;;;;;6.33;5.73;;;;;;;25.53;50.65;101245.94;5002726;28;20528;-82
2023/08/12 04:53:05;;;;;;;7.40;5.70;;;;;;;26.33;48.59;101243.38;5002507;28;20438;-81
2023/08/12 04:55:35;;;;;;;5.53;5.03;;;;;;;26.06;47.56;101242.28;5003670;28;20508;-81
2023/08/12 04:58:05;;;;;;;7.20;5.80;;;;;;;26.75;46.40;101247.16;5002686;28;20429;-81
2023/08/12 05:00:35;;;;;;;7.60;5.70;;;;;;;27.46;45.06;101243.19;5006468;28;21141;-81
2023/08/12 05:03:06;;;;;;;6.50;5.60;;;;;;;27.38;44.59;101243.91;5007750;28;20445;-80
2023/08/12 05:05:37;;;;;;;6.50;5.90;;;;;;;27.68;43.65;101243.34;5024726;28;20460;-81
2023/08/12 05:08:07;;;;;;;8.03;5.57;;;;;;;28.10;42.50;101229.13;5014223;28;20432;-81
2023/08/12 05:10:37;;;;;;;7.17;5.80;;;;;;;27.48;44.05;101230.63;5019746;28;20441;-82
2023/08/12 05:13:06;;;;;;;9.90;5.53;;;;;;;28.05;43.03;101229.22;5037447;28;20420;-81
2023/08/12 05:15:36;;;;;;;10.20;5.60;;;;;;;28.26;42.28;101224.06;5020876;28;20453;-81
2023/08/12 05:18:08;;;;;;;5.73;5.30;;;;;;;28.32;42.41;101227.56;4984523;28;20445;-82
2023/08/12 05:20:37;;;;;;;6.30;5.70;;;;;;;28.67;41.17;101223.94;5001910;28;20873;-81
2023/08/12 05:23:07;;;;;;;6.07;5.47;;;;;;;27.58;42.95;101224.09;5003329;28;20464;-80
2023/08/12 05:25:36;;;;;;;8.90;5.50;;;;;;;28.15;42.38;101222.63;4999523;28;20453;-81
2023/08/12 05:28:07;;;;;;;10.20;5.40;;;;;;;27.01;44.76;101228.19;5020016;28;20932;-80
2023/08/12 05:30:37;;;;;;;8.37;6.30;;;;;;;25.34;48.64;101214.56;4999952;28;20429;-79
2023/08/12 05:33:12;;;;;;;5.87;5.37;;;;;;;24.56;51.21;101214.66;5022534;28;20429;-79
2023/08/12 05:35:42;;;;;;;7.00;6.30;;;;;;;23.96;52.67;101206.72;5006543;28;20468;-80
2023/08/12 05:38:11;;;;;;;6.37;5.90;;;;;;;23.73;54.09;101205.41;5001427;28;20440;-79
2023/08/12 05:40:40;;;;;;;9.80;6.30;;;;;;;23.50;55.01;101206.88;5016434;28;20471;-79
2023/08/12 05:43:09;;;;;;;7.90;5.80;;;;;;;23.47;55.58;101212.97;5017249;28;20453;-79
2023/08/12 05:45:39;;;;;;;7.57;5.47;;;;;;;23.41;56.13;101219.56;5015584;28;20448;-79
2023/08/12 05:48:10;;;;;;;6.87;5.60;;;;;;;23.16;56.10;101216.84;4996446;28;20500;-79
2023/08/12 05:50:39;;;;;;;7.60;5.60;;;;;;;23.02;56.88;101211.06;4998477;28;20433;-79
2023/08/12 05:53:08;;;;;;;6.50;5.90;;;;;;;22.67;58.11;101200.81;5015768;28;21042;-79
2023/08/12 05:55:38;;;;;;;6.33;5.83;;;;;;;22.61;58.48;101193.63;5015795;28;20876;-79
2023/08/12 05:58:08;;;;;;;6.93;5.40;;;;;;;22.65;58.98;101200.28;5015511;28;20929;-79
2023/08/12 06:00:37;;;;;;;6.00;5.40;;;;;;;22.79;58.50;101204.19;5009691;28;20462;-80
2023/08/12 06:03:06;;;;;;;6.80;5.40;;;;;;;22.78;58.91;101204.44;4981114;28;20453;-78
2023/08/12 06:05:37;;;;;;;6.70;6.10;;;;;;;22.74;59.27;101204.19;5021411;23;20472;-80
2023/08/12 06:08:09;;;;;;;5.43;4.93;;;;;;;22.83;58.68;101202.53;5034048;28;20436;-81
2023/08/12 06:10:39;;;;;;;7.10;6.60;;;;;;;22.82;58.96;101211.91;5039799;28;20436;-81
2023/08/12 06:13:08;;;;;;;15.03;6.30;;;;;;;23.04;58.37;101213.56;5029087;28;20432;-80
2023/08/12 06:15:39;;;;;;;7.37;6.30;;;;;;;23.13;57.56;101211.88;5009478;28;20483;-79
2023/08/12 06:18:09;;;;;;;6.73;6.03;;;;;;;23.14;58.47;101216.31;5029822;28;20487;-80
2023/08/12 06:20:41;;;;;;;7.10;5.90;;;;;;;23.46;57.63;101208.53;5041250;28;20471;-78
2023/08/12 06:23:11;;;;;;;7.67;6.10;;;;;;;23.41;57.37;101219.56;5026150;28;20438;-80
2023/08/12 06:25:42;;;;;;;7.63;5.90;;;;;;;23.30;57.74;101209.63;5033410;28;20460;-79
2023/08/12 06:28:12;;;;;;;6.83;6.30;;;;;;;23.46;57.23;101213.22;5024977;28;20954;-80
2023/08/12 06:30:41;;;;;;;12.00;6.57;;;;;;;23.55;56.65;101208.78;5008356;28;20426;-80
2023/08/12 06:33:10;;;;;;;6.47;5.30;;;;;;;23.70;56.92;101211.50;5027282;28;20432;-79
2023/08/12 06:35:41;;;;;;;12.37;5.90;;;;;;;24.10;55.94;101216.84;5029603;28;20476;-81
2023/08/12 06:38:13;;;;;;;7.10;6.40;;;;;;;24.32;55.16;101210.94;5033204;28;20436;-81
2023/08/12 06:40:42;;;;;;;8.83;6.60;;;;;;;24.28;55.29;101211.81;5034609;28;20472;-79
2023/08/12 06:43:11;;;;;;;7.57;6.70;;;;;;;23.88;56.81;101208.09;5027863;28;20437;-80
2023/08/12 06:45:40;;;;;;;6.90;6.20;;;;;;;23.83;56.18;101200.66;5026519;28;20451;-79
2023/08/12 06:48:10;;;;;;;6.53;5.90;;;;;;;23.82;56.67;101198.16;5020234;28;20433;-79
2023/08/12 06:50:41;;;;;;;6.63;6.10;;;;;;;24.03;56.14;101201.69;5033101;28;20430;-79
2023/08/12 06:53:10;;;;;;;6.63;6.03;;;;;;;24.10;56.50;101197.50;5027720;28;20460;-78
2023/08/12 06:55:45;;;;;;;8.00;6.03;;;;;;;24.35;55.27;101196.53;5031174;28;20452;-78
2023/08/12 06:58:15;;;;;;;6.67;5.77;;;;;;;24.51;55.02;101205.56;5030362;28;20503;-77
2023/08/12 07:00:44;;;;;;;6.53;5.80;;;;;;;24.58;54.08;101201.38;5013385;28;20496;-77
2023/08/12 07:03:14;;;;;;;17.40;6.63;;;;;;;24.71;54.37;101197.13;5035147;28;20429;-78
2023/08/12 07:05:45;;;;;;;7.13;6.43;;;;;;;24.88;54.66;101193.97;5019980;28;20507;-78
2023/08/12 07:08:15;;;;;;;7.20;6.43;;;;;;;25.01;54.58;101193.28;5030529;28;20440;-78
2023/08/12 07:10:44;;;;;;;6.30;5.70;;;;;;;25.32;54.13;101189.09;5027066;28;20441;-81
2023/08/12 07:13:13;;;;;;;6.97;5.83;;;;;;;25.21;53.00;101187.56;5028723;28;21074;-79
2023/08/12 07:15:42;;;;;;;12.97;6.00;;;;;;;25.14;53.52;101189.00;5029921;28;20959;-79
2023/08/12 07:18:12;;;;;;;6.43;5.67;;;;;;;25.43;52.91;101189.81;5028328;28;20493;-78
2023/08/12 07:20:41;;;;;;;6.63;5.97;;;;;;;25.44;53.00;101186.75;5030812;28;20560;-78
2023/08/12 07:23:12;;;;;;;8.77;7.97;;;;;;;25.28;53.05;101187.19;5013187;28;20441;-78
2023/08/12 07:25:41;;;;;;;6.73;6.13;;;;;;;25.27;53.27;101191.91;5028826;28;20463;-78
2023/08/12 07:28:10;;;;;;;6.27;5.67;;;;;;;25.42;52.84;101190.91;5027474;28;20441;-80
2023/08/12 07:30:40;;;;;;;8.87;5.80;;;;;;;25.80;52.65;101189.94;5032522;28;20417;-77
2023/08/12 07:33:09;;;;;;;6.13;5.50;;;;;;;26.35;50.77;101182.84;5033406;28;20464;-79
2023/08/12 07:35:38;;;;;;;11.73;6.70;;;;;;;26.56;50.26;101185.28;5028573;28;20471;-78
2023/08/12 07:38:07;;;;;;;7.73;5.47;;;;;;;26.39;49.94;101185.81;5028065;28;20429;-78
2023/08/12 07:40:38;;;;;;;8.33;5.47;;;;;;;26.48;49.89;101186.00;5032813;28;20440;-79
2023/08/12 07:43:10;;;;;;;7.23;6.23;;;;;;;26.62;49.70;101195.19;5007674;28;20480;-80
2023/08/12 07:45:39;;;;;;;7.27;6.57;;;;;;;26.74;49.44;101182.47;5025815;28;20449;-79
2023/08/12 07:48:08;;;;;;;6.60;6.00;;;;;;;26.41;49.61;101182.75;5038534;28;20451;-80
2023/08/12 07:50:38;;;;;;;8.37;6.80;;;;;;;26.46;50.33;101185.44;5038259;28;20421;-78
2023/08/12 07:53:07;;;;;;;7.50;6.90;;;;;;;26.69;49.48;101184.50;5035013;28;20457;-79
2023/08/12 07:55:38;;;;;;;7.10;6.40;;;;;;;26.35;49.38;101188.38;5029799;28;20462;-77
2023/08/12 07:58:07;;;;;;;7.30;6.70;;;;;;;26.45;50.20;101184.63;5027509;28;20445;-80
2023/08/12 08:00:37;;;;;;;7.37;6.33;;;;;;;26.63;50.02;101181.00;5023898;28;20778;-80
2023/08/12 08:03:06;;;;;;;8.63;7.83;;;;;;;26.93;50.44;101176.91;5024305;28;20992;-81
2023/08/12 08:05:35;;;;;;;7.57;6.83;;;;;;;26.76;49.68;101174.69;5017628;28;20472;-80
2023/08/12 08:08:05;;;;;;;7.53;6.90;;;;;;;26.31;50.30;101173.47;5001003;28;20454;-79
2023/08/12 08:10:34;;;;;;;7.63;6.93;;;;;;;25.99;50.99;101170.59;5012874;28;20454;-78
2023/08/12 08:13:05;;;;;;;9.97;6.10;;;;;;;25.97;52.06;101175.59;5015999;28;20434;-80
2023/08/12 08:15:34;;;;;;;9.20;6.80;;;;;;;25.64;52.34;101182.13;5007117;28;20454;-80
2023/08/12 08:18:04;;;;;;;8.20;6.50;;;;;;;25.75;54.35;101180.88;5019118;28;20951;-80
2023/08/12 08:20:36;;;;;;;8.80;6.63;;;;;;;25.46;53.94;101173.41;5005034;28;20493;-81
2023/08/12 08:23:05;;;;;;;7.93;6.87;;;;;;;25.55;54.39;101181.13;5000766;28;20481;-80
2023/08/12 08:25:35;;;;;;;6.97;6.37;;;;;;;25.42;54.58;101171.53;5006011;28;20556;-80
2023/08/12 08:28:06;;;;;;;9.37;8.47;;;;;;;25.42;54.93;101166.81;4988007;28;20450;-80
2023/08/12 08:30:35;;;;;;;8.83;7.93;;;;;;;25.21;55.49;101176.47;5023299;28;20942;-80
2023/08/12 08:33:05;;;;;;;7.43;6.13;;;;;;;25.02;56.05;101179.16;5007780;28;20469;-78
2023/08/12 08:35:34;;;;;;;8.70;7.80;;;;;;;24.84;56.68;101173.47;5006315;28;20457;-79
2023/08/12 08:38:03;;;;;;;7.63;6.93;;;;;;;24.69;57.69;101166.94;5017799;28;20492;-79
2023/08/12 08:40:33;;;;;;;7.63;6.93;;;;;;;24.46;57.60;101176.00;4979638;28;20528;-81
2023/08/12 08:43:07;;;;;;;7.73;6.60;;;;;;;24.37;58.62;101172.19;5003280;28;20609;-80
2023/08/12 08:45:38;;;;;;;8.07;7.37;;;;;;;24.35;59.51;101179.13;4999152;28;20482;-79
2023/08/12 08:48:09;;;;;;;8.50;7.70;;;;;;;24.42;59.56;101180.47;4999833;28;20442;-78
2023/08/12 08:50:40;;;;;;;10.60;7.83;;;;;;;24.43;59.39;101176.59;5004252;28;20469;-80
2023/08/12 08:53:10;;;;;;;9.23;8.23;;;;;;;24.56;58.77;101181.47;5002052;28;20465;-79
2023/08/12 08:55:41;;;;;;;9.07;7.67;;;;;;;24.59;59.83;101175.34;5005007;28;20485;-79
2023/08/12 08:58:13;;;;;;;8.20;7.40;;;;;;;24.68;59.15;101172.78;5002213;28;20502;-79
2023/08/12 09:00:49;;;;;;;8.57;7.67;;;;;;;24.81;59.55;101163.81;5003527;28;20426;-79
2023/08/12 09:03:22;;;;;;;8.13;7.17;;;;;;;24.79;61.44;101151.38;5003050;28;20461;-80
2023/08/12 09:05:52;;;;;;;9.17;8.27;;;;;;;24.76;60.37;101146.44;5003107;28;20491;-79
2023/08/12 09:08:25;;;;;;;8.23;7.53;;;;;;;24.60;60.62;101143.78;5000136;28;20423;-80
2023/08/12 09:10:55;;;;;;;8.30;7.47;;;;;;;24.54;60.93;101144.13;5005937;28;20426;-79
2023/08/12 09:13:28;;;;;;;8.47;7.53;;;;;;;24.75;61.68;101147.53;5002016;28;20426;-81
2023/08/12 09:15:57;;;;;;;8.37;7.57;;;;;;;24.93;59.96;101153.19;5005522;28;20465;-79
2023/08/12 09:18:30;;;;;;;7.77;7.07;;;;;;;25.12;58.97;101135.88;5006460;28;20468;-80
2023/08/12 09:21:00;;;;;;;9.70;7.67;;;;;;;25.06;58.96;101151.72;4989298;28;20441;-80
2023/08/12 09:23:35;;;;;;;11.90;7.40;;;;;;;25.17;59.16;101160.75;5006427;28;20477;-78
2023/08/12 09:26:11;;;;;;;9.87;8.53;;;;;;;25.49;58.59;101156.22;5009328;28;20445;-79
2023/08/12 09:28:42;;;;;;;8.37;7.57;;;;;;;25.58;57.70;101163.91;4999575;28;20965;-79
2023/08/12 09:31:25;;;;;;;11.53;7.90;;;;;;;26.08;56.20;101168.78;4997150;28;20724;-80
2023/08/12 09:33:58;;;;;;;10.63;7.57;;;;;;;26.41;55.06;101166.09;5006082;28;20477;-80
2023/08/12 09:36:30;;;;;;;10.37;7.50;;;;;;;26.17;54.93;101161.44;4986366;28;20462;-80
2023/08/12 09:39:02;;;;;;;9.20;7.37;;;;;;;26.47;54.66;101153.81;5008240;28;20473;-78
2023/08/12 09:41:33;;;;;;;7.80;7.20;;;;;;;26.80;54.53;101152.69;4999674;28;20426;-79
2023/08/12 09:44:14;;;;;;;9.60;7.23;;;;;;;26.74;54.74;101151.13;4985369;28;20445;-80
2023/08/12 09:46:44;;;;;;;8.80;8.00;;;;;;;26.66;54.81;101140.72;5012671;28;20488;-80
2023/08/12 09:49:18;;;;;;;10.03;7.33;;;;;;;26.52;55.44;101145.41;5003340;28;20506;-80
2023/08/12 09:51:47;;;;;;;7.47;6.50;;;;;;;26.59;55.11;101151.38;5001217;28;20434;-79
2023/08/12 09:54:17;;;;;;;9.27;8.40;;;;;;;26.59;54.96;101145.81;4998416;28;20437;-79
2023/08/12 09:56:49;;;;;;;8.90;8.00;;;;;;;26.64;54.20;101137.41;4984867;28;20454;-79
2023/08/12 09:59:21;;;;;;;8.83;7.80;;;;;;;26.51;54.45;101143.75;5000104;28;20429;-79
2023/08/12 10:01:51;;;;;;;10.60;7.60;;;;;;;26.72;54.21;101142.28;5001046;28;20432;-78
2023/08/12 10:04:24;;;;;;;11.37;8.27;;;;;;;26.93;53.94;101146.38;5006188;28;20768;-79
2023/08/12 10:06:53;;;;;;;8.80;7.90;;;;;;;27.10;53.72;101143.00;4986998;28;20811;-80
2023/08/12 10:09:23;;;;;;;8.30;7.50;;;;;;;27.01;53.83;101136.53;5003623;28;20426;-81
2023/08/12 10:11:54;;;;;;;8.30;7.47;;;;;;;26.91;54.04;101143.09;5006207;28;20432;-80
2023/08/12 10:14:25;;;;;;;8.37;7.30;;;;;;;26.89;54.06;101139.78;5003572;28;20980;-79
2023/08/12 10:16:55;;;;;;;7.97;7.17;;;;;;;26.88;53.46;101138.13;5005469;28;20517;-80
2023/08/12 10:19:34;;;;;;;8.60;7.70;;;;;;;26.83;53.72;101127.06;4987000;28;20434;-79
2023/08/12 10:22:09;;;;;;;8.10;7.40;;;;;;;26.83;54.31;101118.75;5004354;28;20435;-80
2023/08/12 10:24:40;;;;;;;8.73;7.47;;;;;;;26.56;54.70;101111.19;5006574;28;20429;-79
2023/08/12 10:27:11;;;;;;;8.20;7.50;;;;;;;26.76;55.11;101119.16;5009071;28;20438;-78
2023/08/12 10:29:46;;;;;;;16.17;8.50;;;;;;;27.18;54.78;101104.22;4979016;28;20447;-79
2023/08/12 10:32:16;;;;;;;7.87;7.23;;;;;;;27.55;53.18;101099.59;5006535;28;20481;-78
2023/08/12 10:34:45;;;;;;;9.73;8.93;;;;;;;27.67;53.26;101095.16;5004364;28;20497;-78
2023/08/12 10:37:15;;;;;;;9.20;8.40;;;;;;;27.91;51.94;101094.91;5006232;28;20463;-80
2023/08/12 10:39:47;;;;;;;8.50;7.60;;;;;;;27.87;52.20;101099.47;5005483;28;20440;-80
2023/08/12 10:42:43;;;;;;;9.13;7.20;;;;;;;27.90;53.29;101087.69;5006313;28;20443;-79
2023/08/12 10:45:15;;;;;;;8.03;7.33;;;;;;;28.17;52.28;101091.56;5001606;28;20452;-80
2023/08/12 10:47:49;;;;;;;8.10;7.40;;;;;;;28.36;51.56;101089.41;5008331;28;20449;-80
2023/08/12 10:50:21;;;;;;;8.43;7.53;;;;;;;28.36;51.91;101090.25;5005002;28;20434;-79
2023/08/12 10:52:55;;;;;;;8.67;7.97;;;;;;;28.48;50.46;101089.66;4988103;28;20445;-79
2023/08/12 10:55:25;;;;;;;9.03;7.73;;;;;;;28.92;50.14;101103.56;5003761;28;20460;-79
2023/08/12 10:57:56;;;;;;;7.83;7.23;;;;;;;29.05;49.58;101101.00;5003434;28;20436;-79
2023/08/12 11:00:28;;;;;;;8.17;7.20;;;;;;;28.68;50.81;101105.84;5005152;28;20447;-79
2023/08/12 11:02:58;;;;;;;9.33;8.40;;;;;;;28.74;49.87;101106.56;4990540;28;20656;-79
2023/08/12 11:05:39;;;;;;;9.07;8.10;;;;;;;28.88;49.71;101102.56;5016430;28;20559;-79
2023/08/12 11:08:08;;;;;;;8.70;7.93;;;;;;;29.06;50.58;101097.88;5034117;28;20519;-81
2023/08/12 11:10:37;;;;;;;7.30;6.67;;;;;;;29.08;50.44;101094.78;5018500;28;20444;-79
2023/08/12 11:13:07;;;;;;;9.03;8.43;;;;;;;29.05;50.27;101093.44;5033036;28;20432;-80
2023/08/12 11:15:44;;;;;;;7.97;7.10;;;;;;;28.88;50.44;101094.19;5024557;28;20479;-79
2023/08/12 11:18:16;;;;;;;9.07;7.57;;;;;;;28.75;51.66;101092.34;5021119;28;20869;-79
2023/08/12 11:20:47;;;;;;;8.97;8.27;;;;;;;29.01;51.08;101089.66;5029992;28;20914;-79
2023/08/12 11:23:17;;;;;;;9.17;8.27;;;;;;;28.93;51.42;101094.06;5025021;28;20468;-79
2023/08/12 11:25:49;;;;;;;7.90;7.20;;;;;;;28.82;51.62;101087.09;5016969;28;20564;-79
2023/08/12 11:28:20;;;;;;;8.80;8.00;;;;;;;29.16;51.18;101080.03;5028170;28;20492;-80
2023/08/12 11:30:50;;;;;;;8.87;8.00;;;;;;;29.08;50.46;101094.78;5019868;28;20468;-79
2023/08/12 11:33:20;;;;;;;8.80;8.00;;;;;;;29.02;50.67;101090.47;5034048;28;20421;-81
2023/08/12 11:35:50;;;;;;;7.50;6.80;;;;;;;28.98;50.28;101083.91;5030119;28;20451;-79
2023/08/12 11:38:20;;;;;;;7.47;6.87;;;;;;;28.92;50.01;101086.84;5031754;28;20440;-79
2023/08/12 11:40:51;;;;;;;9.10;7.90;;;;;;;29.01;50.64;101083.25;5038134;28;20428;-80